createdAt,value
2023-04-01T00:00:48.643Z,12.23
2023-04-01T00:03:15.438Z,12.25
2023-04-01T00:05:42.010Z,12.44
2023-04-01T00:08:08.678Z,12.35
2023-04-01T00:10:41.548Z,12.34
2023-04-01T00:13:08.202Z,12.44
2023-04-01T00:15:35.341Z,12.43
2023-04-01T00:18:02.367Z,12.32
2023-04-01T00:20:29.486Z,12.20
2023-04-01T00:22:56.196Z,12.34
2023-04-01T00:25:22.910Z,12.57
2023-04-01T00:27:50.372Z,12.34
2023-04-01T00:30:17.176Z,12.59
2023-04-01T00:32:46.194Z,12.55
2023-04-01T00:35:13.576Z,12.57
2023-04-01T00:37:42.959Z,12.66
2023-04-01T00:40:22.336Z,12.41
2023-04-01T00:42:48.998Z,12.13
2023-04-01T00:45:25.081Z,12.29
2023-04-01T00:47:51.677Z,12.30
2023-04-01T00:50:18.838Z,12.25
2023-04-01T00:52:48.670Z,12.58
2023-04-01T00:55:17.234Z,11.94
2023-04-01T00:57:44.756Z,12.04
2023-04-01T01:00:13.114Z,12.19
2023-04-01T01:02:42.286Z,12.04
2023-04-01T01:05:12.690Z,12.14
2023-04-01T01:07:46.212Z,11.97
2023-04-01T01:10:31.054Z,12.13
2023-04-01T01:13:18.633Z,12.18
2023-04-01T01:16:00.391Z,12.17
2023-04-01T01:18:39.506Z,11.86
2023-04-01T01:21:06.168Z,11.69
2023-04-01T01:23:51.209Z,12.03
2023-04-01T01:26:37.056Z,11.71
2023-04-01T01:29:19.217Z,12.10
2023-04-01T01:31:46.299Z,12.37
2023-04-01T01:34:18.785Z,12.23
2023-04-01T01:36:46.922Z,11.89
2023-04-01T01:39:14.727Z,11.97
2023-04-01T01:41:43.554Z,12.17
2023-04-01T01:44:15.364Z,12.00
2023-04-01T01:46:43.520Z,11.98
2023-04-01T01:49:12.811Z,11.89
2023-04-01T01:51:40.932Z,11.67
2023-04-01T01:54:14.252Z,12.03
2023-04-01T01:56:51.380Z,12.24
2023-04-01T01:59:21.910Z,11.90
2023-04-01T02:01:51.882Z,11.39
2023-04-01T02:04:20.303Z,11.76
2023-04-01T02:06:53.471Z,11.79
2023-04-01T02:09:20.447Z,11.48
2023-04-01T02:11:50.802Z,11.50
2023-04-01T02:14:36.067Z,12.02
2023-04-01T02:17:08.277Z,11.86
2023-04-01T02:19:39.240Z,11.96
2023-04-01T02:22:09.918Z,12.10
2023-04-01T02:24:40.895Z,11.76
2023-04-01T02:27:07.805Z,11.63
2023-04-01T02:29:34.751Z,11.78
2023-04-01T02:32:01.877Z,11.57
2023-04-01T02:34:29.026Z,11.77
2023-04-01T02:36:56.339Z,11.76
2023-04-01T02:39:23.622Z,11.67
2023-04-01T02:41:50.527Z,11.59
2023-04-01T02:44:17.265Z,11.50
2023-04-01T02:46:44.520Z,11.64
2023-04-01T02:49:20.189Z,11.51
2023-04-01T02:51:47.119Z,11.46
2023-04-01T02:54:13.832Z,11.64
2023-04-01T02:56:43.900Z,12.11
2023-04-01T02:59:11.513Z,11.84
2023-04-01T03:01:38.436Z,11.63
2023-04-01T03:04:05.462Z,11.81
2023-04-01T03:06:32.076Z,11.56
2023-04-01T03:09:01.114Z,11.89
2023-04-01T03:11:27.944Z,11.80
2023-04-01T03:13:54.581Z,12.02
2023-04-01T03:16:21.363Z,11.76
2023-04-01T03:18:51.616Z,11.79
2023-04-01T03:21:19.445Z,11.81
2023-04-01T03:23:48.439Z,11.33
2023-04-01T03:26:15.523Z,11.83
2023-04-01T03:28:42.931Z,11.48
2023-04-01T03:31:10.193Z,11.36
2023-04-01T03:33:43.452Z,11.47
2023-04-01T03:36:12.684Z,11.78
2023-04-01T03:38:43.337Z,11.90
2023-04-01T03:41:16.504Z,11.75
2023-04-01T03:43:44.166Z,11.83
2023-04-01T03:46:11.323Z,11.56
2023-04-01T03:48:38.055Z,11.70
2023-04-01T03:51:07.890Z,11.74
2023-04-01T03:53:34.605Z,11.52
2023-04-01T03:56:06.346Z,11.55
2023-04-01T03:58:34.557Z,11.44
2023-04-01T04:01:04.862Z,11.65
2023-04-01T04:03:33.052Z,11.66
2023-04-01T04:06:01.130Z,11.86
2023-04-01T04:08:28.595Z,12.09
2023-04-01T04:10:58.163Z,11.64
2023-04-01T04:13:25.559Z,11.63
2023-04-01T04:15:59.870Z,11.46
2023-04-01T04:18:27.184Z,11.61
2023-04-01T04:20:53.902Z,11.70
2023-04-01T04:23:21.167Z,11.97
2023-04-01T04:26:04.126Z,11.88
2023-04-01T04:28:31.627Z,12.06
2023-04-01T04:30:59.409Z,11.58
2023-04-01T04:33:26.709Z,11.68
2023-04-01T04:35:56.111Z,11.67
2023-04-01T04:38:23.668Z,11.94
2023-04-01T04:40:50.301Z,11.98
2023-04-01T04:43:18.049Z,12.12
2023-04-01T04:45:45.006Z,11.91
2023-04-01T04:48:17.198Z,11.63
2023-04-01T04:50:44.669Z,11.36
2023-04-01T04:53:14.646Z,11.69
2023-04-01T04:55:45.572Z,11.71
2023-04-01T04:58:35.046Z,11.50
2023-04-01T05:01:13.529Z,11.88
2023-04-01T05:03:40.933Z,11.78
2023-04-01T05:06:08.613Z,11.76
2023-04-01T05:08:35.471Z,11.70
2023-04-01T05:11:02.748Z,11.68
2023-04-01T05:13:33.907Z,11.70
2023-04-01T05:16:02.701Z,11.65
2023-04-01T05:18:29.274Z,11.85
2023-04-01T05:21:02.088Z,11.84
2023-04-01T05:23:28.748Z,11.67
2023-04-01T05:25:58.019Z,11.47
2023-04-01T05:28:24.683Z,11.83
2023-04-01T05:30:52.076Z,11.75
2023-04-01T05:33:26.954Z,12.26
2023-04-01T05:35:54.317Z,12.41
2023-04-01T05:38:21.138Z,12.35
2023-04-01T05:40:47.763Z,12.29
2023-04-01T05:43:15.519Z,12.13
2023-04-01T05:45:45.998Z,12.07
2023-04-01T05:48:16.451Z,12.23
2023-04-01T05:50:44.024Z,12.01
2023-04-01T05:53:14.411Z,12.09
2023-04-01T05:55:43.404Z,12.19
2023-04-01T05:58:10.014Z,12.37
2023-04-01T06:00:39.051Z,12.13
2023-04-01T06:03:05.756Z,12.30
2023-04-01T06:05:43.925Z,12.64
2023-04-01T06:08:12.244Z,12.66
2023-04-01T06:10:45.436Z,12.71
2023-04-01T06:13:22.510Z,12.53
2023-04-01T06:15:59.711Z,12.62
2023-04-01T06:18:38.745Z,12.78
2023-04-01T06:21:17.715Z,12.72
2023-04-01T06:24:08.707Z,12.39
2023-04-01T06:26:36.813Z,12.64
2023-04-01T06:29:24.081Z,12.64
2023-04-01T06:32:09.952Z,12.80
2023-04-01T06:34:43.870Z,12.83
2023-04-01T06:37:21.860Z,12.82
2023-04-01T06:40:02.239Z,12.94
2023-04-01T06:42:44.661Z,13.12
2023-04-01T06:45:37.202Z,13.04
2023-04-01T06:48:26.043Z,12.98
2023-04-01T06:51:35.092Z,13.16
2023-04-01T06:54:26.604Z,13.22
2023-04-01T06:57:20.455Z,13.27
2023-04-01T06:59:48.470Z,13.06
2023-04-01T07:02:38.017Z,13.12
2023-04-01T07:05:05.408Z,12.87
2023-04-01T07:07:47.266Z,12.99
2023-04-01T07:10:21.033Z,13.16
2023-04-01T07:13:13.778Z,12.91
2023-04-01T07:15:57.920Z,13.13
2023-04-01T07:18:31.610Z,13.41
2023-04-01T07:21:02.442Z,13.36
2023-04-01T07:23:32.511Z,13.46
2023-04-01T07:26:23.645Z,13.64
2023-04-01T07:29:28.875Z,13.65
2023-04-01T07:32:32.564Z,13.78
2023-04-01T07:35:11.205Z,14.00
2023-04-01T07:37:54.192Z,13.91
2023-04-01T07:40:40.616Z,14.02
2023-04-01T07:43:23.484Z,13.95
2023-04-01T07:46:18.803Z,14.33
2023-04-01T07:48:58.550Z,13.98
2023-04-01T07:51:29.984Z,14.44
2023-04-01T07:53:59.718Z,14.67
2023-04-01T07:56:32.807Z,14.65
2023-04-01T07:59:18.575Z,15.17
2023-04-01T08:01:58.713Z,15.25
2023-04-01T08:04:43.896Z,15.12
2023-04-01T08:07:14.357Z,15.27
2023-04-01T08:10:10.921Z,14.68
2023-04-01T08:13:03.524Z,14.70
2023-04-01T08:16:02.709Z,14.75
2023-04-01T08:18:43.004Z,15.22
2023-04-01T08:21:24.795Z,15.50
2023-04-01T08:23:57.470Z,15.73
2023-04-01T08:26:24.094Z,15.28
2023-04-01T08:28:50.829Z,15.65
2023-04-01T08:31:23.911Z,15.92
2023-04-01T08:33:54.000Z,16.27
2023-04-01T08:36:26.327Z,16.37
2023-04-01T08:39:11.573Z,16.12
2023-04-01T08:41:57.714Z,16.01
2023-04-01T08:45:01.641Z,16.11
2023-04-01T08:47:39.750Z,16.52
2023-04-01T08:50:21.950Z,16.55
2023-04-01T08:53:32.562Z,16.21
2023-04-01T08:56:07.430Z,16.72
2023-04-01T08:58:52.328Z,16.68
2023-04-01T09:01:23.748Z,16.09
2023-04-01T09:04:09.469Z,16.21
2023-04-01T09:06:39.151Z,16.23
2023-04-01T09:09:24.656Z,16.33
2023-04-01T09:12:12.199Z,16.14
2023-04-01T09:15:02.724Z,16.34
2023-04-01T09:17:46.316Z,16.65
2023-04-01T09:20:16.275Z,16.25
2023-04-01T09:23:06.674Z,16.17
2023-04-01T09:25:52.053Z,15.99
2023-04-01T09:28:21.821Z,15.96
2023-04-01T09:31:07.000Z,16.05
2023-04-01T09:33:55.641Z,16.34
2023-04-01T09:36:41.534Z,16.40
2023-04-01T09:39:25.003Z,16.66
2023-04-01T09:42:03.293Z,16.73
2023-04-01T09:44:42.964Z,16.41
2023-04-01T09:47:29.605Z,16.90
2023-04-01T09:50:11.997Z,17.74
2023-04-01T09:52:45.273Z,18.13
2023-04-01T09:55:26.717Z,17.54
2023-04-01T09:58:09.193Z,18.03
2023-04-01T10:01:04.302Z,17.55
2023-04-01T10:03:52.469Z,16.48
2023-04-01T10:06:19.901Z,16.84
2023-04-01T10:08:59.117Z,17.05
2023-04-01T10:11:44.210Z,16.85
2023-04-01T10:14:24.098Z,16.57
2023-04-01T10:16:56.774Z,16.51
2023-04-01T10:19:32.116Z,16.26
2023-04-01T10:22:08.341Z,16.36
2023-04-01T10:24:50.898Z,16.56
2023-04-01T10:27:17.501Z,16.29
2023-04-01T10:30:22.583Z,15.84
2023-04-01T10:32:54.854Z,16.22
2023-04-01T10:35:27.694Z,15.99
2023-04-01T10:37:54.326Z,15.32
2023-04-01T10:40:26.398Z,15.27
2023-04-01T10:43:29.985Z,15.29
2023-04-01T10:46:29.906Z,15.26
2023-04-01T10:48:59.607Z,15.36
2023-04-01T10:51:44.911Z,15.76
2023-04-01T10:54:22.712Z,15.83
2023-04-01T10:57:19.983Z,15.90
2023-04-01T11:00:14.573Z,16.19
2023-04-01T11:03:34.917Z,15.90
2023-04-01T11:06:36.397Z,15.73
2023-04-01T11:09:06.160Z,15.43
2023-04-01T11:11:52.199Z,15.28
2023-04-01T11:14:37.874Z,15.04
2023-04-01T11:17:47.674Z,15.35
2023-04-01T11:20:29.595Z,14.90
2023-04-01T11:23:19.976Z,14.87
2023-04-01T11:26:05.781Z,15.21
2023-04-01T11:29:09.953Z,15.39
2023-04-01T11:31:46.967Z,15.40
2023-04-01T11:34:33.554Z,15.57
2023-04-01T11:37:18.788Z,15.48
2023-04-01T11:40:25.829Z,15.35
2023-04-01T11:43:33.360Z,15.93
2023-04-01T11:46:28.585Z,16.00
2023-04-01T11:49:14.220Z,16.21
2023-04-01T11:52:07.736Z,16.31
2023-04-01T11:54:43.204Z,16.31
2023-04-01T11:57:29.144Z,16.67
2023-04-01T12:00:01.629Z,16.27
2023-04-01T12:02:31.762Z,15.77
2023-04-01T12:05:24.783Z,15.69
2023-04-01T12:08:04.129Z,15.73
2023-04-01T12:10:39.084Z,15.37
2023-04-01T12:13:24.179Z,15.78
2023-04-01T12:16:06.546Z,15.27
2023-04-01T12:18:51.881Z,15.15
2023-04-01T12:21:37.484Z,14.82
2023-04-01T12:24:23.010Z,14.82
2023-04-01T12:27:01.657Z,14.93
2023-04-01T12:29:37.169Z,14.86
2023-04-01T12:32:12.172Z,14.76
2023-04-01T12:34:40.080Z,14.13
2023-04-01T12:37:30.029Z,13.39
2023-04-01T12:39:57.019Z,12.70
2023-04-01T12:42:42.070Z,13.34
2023-04-01T12:45:17.746Z,12.60
2023-04-01T12:47:59.298Z,12.36
2023-04-01T12:50:25.934Z,12.04
2023-04-01T12:53:21.824Z,12.33
2023-04-01T12:55:51.796Z,12.31
2023-04-01T12:58:36.787Z,12.20
2023-04-01T13:01:03.365Z,12.28
2023-04-01T13:03:48.660Z,12.21
2023-04-01T13:06:16.932Z,12.00
2023-04-01T13:09:04.876Z,11.96
2023-04-01T13:11:43.757Z,11.64
2023-04-01T13:14:15.777Z,11.84
2023-04-01T13:17:11.565Z,11.64
2023-04-01T13:19:48.600Z,11.23
2023-04-01T13:22:24.404Z,11.36
2023-04-01T13:25:20.039Z,11.26
2023-04-01T13:27:49.263Z,11.22
2023-04-01T13:30:31.134Z,11.61
2023-04-01T13:33:01.192Z,11.21
2023-04-01T13:35:41.915Z,11.12
2023-04-01T13:38:20.655Z,10.72
2023-04-01T13:41:02.242Z,10.66
2023-04-01T13:43:35.551Z,11.21
2023-04-01T13:46:02.148Z,11.47
2023-04-01T13:48:46.934Z,11.40
2023-04-01T13:51:19.327Z,11.01
2023-04-01T13:53:54.736Z,10.94
2023-04-01T13:56:39.846Z,11.16
2023-04-01T13:59:09.175Z,10.55
2023-04-01T14:01:42.972Z,10.63
2023-04-01T14:04:09.685Z,10.40
2023-04-01T14:06:39.382Z,10.31
2023-04-01T14:09:24.504Z,10.34
2023-04-01T14:12:09.647Z,10.60
2023-04-01T14:14:45.554Z,10.34
2023-04-01T14:17:12.134Z,10.30
2023-04-01T14:19:38.600Z,10.55
2023-04-01T14:22:23.661Z,10.22
2023-04-01T14:25:07.657Z,10.22
2023-04-01T14:27:45.577Z,10.07
2023-04-01T14:30:12.257Z,10.14
2023-04-01T14:32:41.607Z,10.30
2023-04-01T14:35:33.824Z,10.18
2023-04-01T14:38:19.075Z,10.43
2023-04-01T14:40:45.679Z,10.23
2023-04-01T14:43:12.144Z,10.04
2023-04-01T14:45:57.463Z,10.45
2023-04-01T14:48:38.845Z,10.47
2023-04-01T14:51:16.351Z,10.63
2023-04-01T14:53:46.860Z,10.48
2023-04-01T14:56:13.694Z,10.41
2023-04-01T14:58:51.638Z,10.43
2023-04-01T15:01:24.255Z,10.51
2023-04-01T15:03:56.734Z,10.11
2023-04-01T15:06:26.043Z,10.13
2023-04-01T15:08:52.604Z,9.91
2023-04-01T15:11:30.898Z,9.99
2023-04-01T15:13:57.444Z,9.75
2023-04-01T15:16:30.495Z,9.76
2023-04-01T15:19:15.941Z,9.57
2023-04-01T15:22:01.328Z,9.79
2023-04-01T15:24:35.960Z,9.88
2023-04-01T15:27:08.813Z,9.74
2023-04-01T15:29:53.794Z,9.77
2023-04-01T15:32:29.875Z,9.36
2023-04-01T15:35:15.600Z,9.50
2023-04-01T15:37:52.953Z,9.54
2023-04-01T15:40:22.429Z,9.53
2023-04-01T15:42:58.848Z,9.29
2023-04-01T15:45:25.460Z,9.29
2023-04-01T15:48:03.095Z,9.10
2023-04-01T15:50:32.772Z,9.26
2023-04-01T15:53:19.596Z,9.32
2023-04-01T15:55:58.047Z,9.23
2023-04-01T15:58:25.243Z,8.99
2023-04-01T16:00:54.552Z,9.04
2023-04-01T16:03:50.373Z,8.92
2023-04-01T16:06:16.967Z,9.06
2023-04-01T16:08:55.795Z,9.06
2023-04-01T16:11:42.143Z,9.17
2023-04-01T16:14:20.012Z,9.09
2023-04-01T16:16:47.521Z,9.24
2023-04-01T16:19:26.576Z,9.32
2023-04-01T16:22:02.428Z,8.78
2023-04-01T16:25:07.899Z,8.93
2023-04-01T16:27:34.417Z,9.09
2023-04-01T16:30:03.789Z,8.69
2023-04-01T16:32:38.598Z,8.75
2023-04-01T16:35:05.149Z,8.44
2023-04-01T16:37:34.401Z,8.83
2023-04-01T16:40:02.242Z,8.66
2023-04-01T16:42:47.326Z,8.57
2023-04-01T16:45:13.893Z,8.67
2023-04-01T16:47:46.237Z,8.89
2023-04-01T16:50:21.896Z,8.53
2023-04-01T16:53:01.799Z,8.71
2023-04-01T16:55:37.502Z,8.87
2023-04-01T16:58:04.085Z,8.97
2023-04-01T17:00:42.184Z,8.75
2023-04-01T17:03:08.744Z,8.46
2023-04-01T17:05:50.406Z,8.60
2023-04-01T17:08:22.912Z,8.52
2023-04-01T17:11:05.173Z,8.70
2023-04-01T17:13:37.861Z,8.44
2023-04-01T17:16:23.238Z,8.53
2023-04-01T17:19:08.575Z,8.65
2023-04-01T17:21:47.555Z,8.39
2023-04-01T17:24:32.522Z,8.23
2023-04-01T17:27:01.979Z,8.29
2023-04-01T17:29:38.772Z,8.27
2023-04-01T17:32:12.776Z,8.12
2023-04-01T17:35:04.840Z,7.97
2023-04-01T17:37:57.636Z,8.22
2023-04-01T17:40:27.401Z,8.23
2023-04-01T17:43:23.098Z,8.20
2023-04-01T17:45:57.638Z,8.00
2023-04-01T17:48:40.147Z,7.95
2023-04-01T17:51:09.733Z,8.18
2023-04-01T17:53:44.663Z,8.17
2023-04-01T17:56:11.415Z,8.23
2023-04-01T17:58:38.158Z,8.03
2023-04-01T18:01:07.737Z,8.15
2023-04-01T18:03:52.509Z,8.04
2023-04-01T18:06:22.907Z,7.99
2023-04-01T18:08:58.322Z,7.81
2023-04-01T18:11:43.457Z,7.77
2023-04-01T18:14:28.763Z,7.76
2023-04-01T18:16:55.584Z,7.61
2023-04-01T18:19:22.234Z,7.76
2023-04-01T18:21:51.425Z,8.04
2023-04-01T18:24:34.151Z,7.81
2023-04-01T18:27:12.780Z,7.51
2023-04-01T18:29:48.975Z,7.49
2023-04-01T18:32:24.080Z,7.62
2023-04-01T18:34:53.936Z,7.64
2023-04-01T18:37:25.256Z,7.49
2023-04-01T18:39:53.997Z,7.76
2023-04-01T18:42:37.758Z,7.71
2023-04-01T18:45:23.287Z,7.93
2023-04-01T18:47:49.863Z,7.79
2023-04-01T18:50:25.818Z,7.55
2023-04-01T18:52:57.732Z,7.25
2023-04-01T18:55:36.212Z,7.03
2023-04-01T18:58:23.137Z,7.11
2023-04-01T19:01:03.854Z,7.12
2023-04-01T19:03:40.092Z,7.33
2023-04-01T19:06:29.910Z,7.29
2023-04-01T19:09:01.334Z,6.87
2023-04-01T19:11:50.631Z,7.09
2023-04-01T19:14:17.208Z,6.98
2023-04-01T19:17:08.809Z,6.77
2023-04-01T19:19:38.574Z,6.79
2023-04-01T19:22:24.043Z,6.90
2023-04-01T19:24:59.665Z,6.94
2023-04-01T19:27:26.291Z,6.81
2023-04-01T19:30:01.830Z,6.48
2023-04-01T19:32:50.596Z,6.41
2023-04-01T19:35:25.129Z,6.45
2023-04-01T19:37:51.666Z,6.61
2023-04-01T19:40:27.423Z,6.35
2023-04-01T19:42:57.077Z,6.60
2023-04-01T19:45:36.852Z,6.60
2023-04-01T19:48:04.250Z,6.49
2023-04-01T19:50:49.560Z,6.56
2023-04-01T19:53:22.061Z,6.41
2023-04-01T19:56:01.248Z,6.71
2023-04-01T19:58:36.876Z,6.53
2023-04-01T20:01:05.719Z,6.61
2023-04-01T20:03:45.564Z,6.39
2023-04-01T20:06:18.656Z,6.43
2023-04-01T20:08:51.190Z,6.37
2023-04-01T20:11:29.788Z,6.44
2023-04-01T20:14:21.011Z,6.53
2023-04-01T20:17:20.145Z,6.37
2023-04-01T20:20:04.551Z,6.24
2023-04-01T20:22:46.620Z,6.34
2023-04-01T20:25:24.925Z,6.59
2023-04-01T20:27:55.899Z,6.53
2023-04-01T20:30:41.633Z,6.23
2023-04-01T20:33:20.016Z,6.20
2023-04-01T20:35:58.686Z,6.22
2023-04-01T20:38:43.789Z,6.34
2023-04-01T20:41:10.540Z,6.16
2023-04-01T20:43:44.007Z,5.97
2023-04-01T20:46:39.886Z,6.28
2023-04-01T20:49:18.369Z,5.84
2023-04-01T20:51:53.974Z,6.13
2023-04-01T20:54:32.982Z,5.98
2023-04-01T20:56:59.635Z,6.15
2023-04-01T20:59:45.032Z,5.99
2023-04-01T21:02:26.814Z,5.77
2023-04-01T21:05:12.103Z,5.88
2023-04-01T21:07:50.891Z,5.71
2023-04-01T21:10:17.397Z,5.98
2023-04-01T21:12:46.668Z,5.89
2023-04-01T21:15:39.160Z,6.15
2023-04-01T21:18:25.646Z,5.75
2023-04-01T21:21:10.866Z,5.76
2023-04-01T21:23:37.426Z,5.74
2023-04-01T21:26:10.284Z,5.74
2023-04-01T21:28:43.037Z,5.73
2023-04-01T21:31:27.987Z,5.86
2023-04-01T21:34:29.976Z,5.82
2023-04-01T21:37:07.848Z,5.93
2023-04-01T21:39:53.013Z,5.66
2023-04-01T21:42:22.374Z,5.87
2023-04-01T21:44:48.921Z,5.66
2023-04-01T21:47:18.590Z,5.66
2023-04-01T21:49:53.974Z,5.55
2023-04-01T21:52:26.408Z,5.31
2023-04-01T21:55:07.993Z,5.21
2023-04-01T21:57:49.627Z,5.23
2023-04-01T22:00:25.672Z,5.31
2023-04-01T22:02:52.258Z,5.61
2023-04-01T22:05:26.979Z,5.52
2023-04-01T22:08:01.028Z,5.40
2023-04-01T22:10:33.730Z,5.22
2023-04-01T22:13:14.599Z,5.30
2023-04-01T22:15:53.244Z,4.99
2023-04-01T22:18:23.897Z,5.06
2023-04-01T22:20:54.671Z,5.24
2023-04-01T22:23:34.111Z,5.23
2023-04-01T22:26:15.785Z,4.89
2023-04-01T22:28:56.716Z,5.08
2023-04-01T22:31:47.265Z,5.34
2023-04-01T22:34:13.943Z,5.23
2023-04-01T22:36:53.641Z,5.15
2023-04-01T22:39:40.457Z,5.11
2023-04-01T22:42:06.967Z,5.19
2023-04-01T22:44:33.444Z,5.14
2023-04-01T22:47:03.018Z,5.32
2023-04-01T22:49:49.420Z,4.72
2023-04-01T22:52:19.032Z,4.86
2023-04-01T22:54:51.412Z,4.57
2023-04-01T22:57:39.391Z,4.74
2023-04-01T23:00:09.221Z,4.64
2023-04-01T23:03:02.248Z,4.70
2023-04-01T23:05:29.798Z,4.47
2023-04-01T23:08:08.937Z,4.44
2023-04-01T23:10:41.766Z,4.64
2023-04-01T23:13:14.145Z,4.45
2023-04-01T23:15:41.466Z,4.43
2023-04-01T23:18:14.269Z,4.26
2023-04-01T23:20:56.010Z,4.44
2023-04-01T23:23:43.370Z,4.48
2023-04-01T23:26:09.983Z,4.35
2023-04-01T23:28:48.803Z,4.30
2023-04-01T23:31:44.823Z,4.54
2023-04-01T23:34:14.511Z,4.47
2023-04-01T23:36:45.533Z,4.43
2023-04-01T23:39:29.511Z,4.36
2023-04-01T23:41:58.152Z,4.53
2023-04-01T23:44:26.006Z,4.51
2023-04-01T23:46:53.377Z,4.44
2023-04-01T23:49:27.706Z,4.60
2023-04-01T23:51:59.748Z,4.60
2023-04-01T23:54:41.474Z,4.57
2023-04-01T23:57:19.562Z,4.57
